Time;durP1;ratioP1;P1;durP2;ratioP2;P2;SDS_P1;SDS_P2;PMS_P1;PMS_P2;Temp;Humidity;BMP_temperature;BMP_pressure;BME280_temperature;BME280_humidity;BME280_pressure;Samples;Min_cycle;Max_cycle;Signal;HPM_P1;HPM_P2
2023/04/02 00:00:17;;;;;;;14.70;11.53;;;;;;;-145.18;100.00;46720.94;6181667;23;20223;-77
2023/04/02 00:02:58;;;;;;;18.73;10.33;;;;;;;-145.18;100.00;46720.94;6171791;23;20243;-77
2023/04/02 00:05:24;;;;;;;16.23;11.03;;;;;;;-145.18;100.00;46719.00;6181151;23;20599;-77
2023/04/02 00:07:52;;;;;;;15.20;11.80;;;;;;;-145.18;100.00;46720.94;6181464;23;20262;-77
2023/04/02 00:10:50;;;;;;;18.83;11.70;;;;;;;-145.18;100.00;46717.03;6181431;23;20258;-78
2023/04/02 00:13:15;;;;;;;17.97;11.63;;;;;;;-145.18;100.00;46720.94;6139687;23;20712;-79
2023/04/02 00:15:43;;;;;;;17.17;12.60;;;;;;;-145.18;100.00;46720.94;6181762;23;20262;-79
2023/04/02 00:18:13;;;;;;;17.60;11.27;;;;;;;-145.18;100.00;46720.94;6181610;23;20001;-80
2023/04/02 00:20:42;;;;;;;18.63;12.10;;;;;;;-145.18;100.00;46720.94;6181347;23;20230;-79
2023/04/02 00:23:11;;;;;;;16.27;12.00;;;;;;;-145.18;100.00;46719.00;6181237;23;20305;-79
2023/04/02 00:25:41;;;;;;;19.43;12.60;;;;;;;-145.18;100.00;46720.94;6181574;23;20215;-79
2023/04/02 00:28:20;;;;;;;24.73;12.93;;;;;;;-145.18;100.00;46724.84;6181671;23;20548;-80
2023/04/02 00:30:58;;;;;;;20.37;13.47;;;;;;;-145.18;100.00;46722.91;6181426;23;20251;-80
2023/04/02 00:33:29;;;;;;;27.00;14.33;;;;;;;-145.18;100.00;46717.03;6181141;23;20281;-80
2023/04/02 00:35:55;;;;;;;23.80;13.43;;;;;;;-145.18;100.00;46728.75;6181672;23;20287;-81
2023/04/02 00:38:26;;;;;;;21.00;13.83;;;;;;;-145.18;100.00;46717.03;6182146;23;20235;-80
2023/04/02 00:40:54;;;;;;;23.07;12.93;;;;;;;-145.18;100.00;46722.91;6183552;23;20012;-80
2023/04/02 00:43:27;;;;;;;24.63;14.40;;;;;;;-145.18;100.00;46722.91;6183446;23;20238;-80
2023/04/02 00:45:55;;;;;;;24.73;15.40;;;;;;;-145.18;100.00;46720.94;6182061;23;20262;-80
2023/04/02 00:48:30;;;;;;;19.80;14.40;;;;;;;-145.18;100.00;46720.94;6182928;23;20234;-80
2023/04/02 00:50:59;;;;;;;20.53;14.10;;;;;;;-145.18;100.00;46719.00;6183358;23;20715;-81
2023/04/02 00:53:28;;;;;;;23.07;14.67;;;;;;;-145.18;100.00;46717.03;6182572;23;20553;-81
2023/04/02 00:55:56;;;;;;;25.67;14.80;;;;;;;-145.18;100.00;46722.91;6183341;23;20219;-81
2023/04/02 00:58:26;;;;;;;24.27;14.73;;;;;;;-145.18;100.00;46720.94;6183029;23;20294;-81
2023/04/02 01:00:52;;;;;;;22.53;14.23;;;;;;;-145.18;100.00;46720.94;6183362;23;20262;-81
2023/04/02 01:03:29;;;;;;;25.67;15.87;;;;;;;-145.18;100.00;46722.91;6183038;23;20227;-81
2023/04/02 01:06:02;;;;;;;28.07;15.67;;;;;;;-145.18;100.00;46717.03;6183260;23;20239;-81
2023/04/02 01:08:50;;;;;;;29.97;15.83;;;;;;;-145.18;100.00;46722.91;6182708;23;20263;-81
2023/04/02 01:11:46;;;;;;;27.33;16.30;;;;;;;-145.18;100.00;46719.00;6183137;23;20235;-81
2023/04/02 01:14:35;;;;;;;22.55;14.90;;;;;;;-145.18;100.00;46719.00;6181717;23;20301;-81
2023/04/02 01:17:17;;;;;;;25.60;16.20;;;;;;;-145.18;100.00;46720.94;6183190;23;20605;-81
2023/04/02 01:19:57;;;;;;;27.53;15.77;;;;;;;-145.18;100.00;46722.91;6182771;23;20235;-81
2023/04/02 01:22:47;;;;;;;24.80;14.50;;;;;;;-145.18;100.00;46722.91;6183023;23;20230;-80
2023/04/02 01:25:17;;;;;;;26.70;15.10;;;;;;;-145.18;100.00;46720.94;6183163;23;20231;-80
2023/04/02 01:27:51;;;;;;;24.77;15.97;;;;;;;-145.18;100.00;46722.91;6182620;23;20227;-81
2023/04/02 01:30:18;;;;;;;22.43;13.73;;;;;;;-145.18;100.00;46719.00;6182985;23;20301;-81
2023/04/02 01:32:44;;;;;;;21.17;13.80;;;;;;;-145.18;100.00;46720.94;6182585;23;20241;-80
2023/04/02 01:35:10;;;;;;;22.97;13.83;;;;;;;-145.18;100.00;46724.84;6183116;23;20231;-81
2023/04/02 01:37:51;;;;;;;29.77;14.90;;;;;;;-145.18;100.00;46726.81;6182610;23;20235;-81
2023/04/02 01:40:24;;;;;;;28.13;15.40;;;;;;;-145.18;100.00;46724.84;6182634;23;20005;-80
2023/04/02 01:43:08;;;;;;;21.53;14.30;;;;;;;-145.18;100.00;46726.81;6182703;23;20261;-81
2023/04/02 01:45:33;;;;;;;28.37;13.83;;;;;;;-145.18;100.00;46724.84;6182798;23;20227;-81
2023/04/02 01:48:04;;;;;;;26.10;14.30;;;;;;;-145.18;100.00;46724.84;6180853;23;20235;-81
2023/04/02 01:50:35;;;;;;;21.97;14.47;;;;;;;-145.18;100.00;46720.94;6182084;23;20443;-81
2023/04/02 01:53:16;;;;;;;24.77;15.43;;;;;;;-145.18;100.00;46726.81;6182424;23;20238;-81
2023/04/02 01:55:53;;;;;;;24.67;15.57;;;;;;;-145.18;100.00;46724.84;6182436;23;20222;-81
2023/04/02 01:58:24;;;;;;;22.80;15.07;;;;;;;-145.18;100.00;46732.66;6182322;23;20557;-81
2023/04/02 02:03:25;;;;;;;23.77;15.30;;;;;;;-145.18;100.00;46726.81;6174291;23;20325;-81
2023/04/02 02:05:51;;;;;;;24.70;15.13;;;;;;;-145.18;100.00;46722.91;6156115;23;20013;-82
2023/04/02 02:08:23;;;;;;;30.17;15.00;;;;;;;-145.18;100.00;46726.81;6182097;23;20487;-82
2023/04/02 02:10:49;;;;;;;25.37;14.17;;;;;;;-145.18;100.00;46726.81;6182478;23;20143;-82
2023/04/02 02:13:15;;;;;;;24.73;14.43;;;;;;;-145.18;100.00;46724.84;6182551;23;20238;-82
2023/04/02 02:15:40;;;;;;;25.03;14.73;;;;;;;-145.18;100.00;46728.75;6182809;23;20227;-81
2023/04/02 02:18:09;;;;;;;24.00;15.17;;;;;;;-145.18;100.00;46726.81;6155792;23;20451;-81
2023/04/02 02:20:35;;;;;;;23.73;13.83;;;;;;;-145.18;100.00;46734.63;6182920;23;20009;-82
2023/04/02 02:23:02;;;;;;;21.90;12.77;;;;;;;-145.18;100.00;46734.63;6182506;23;20691;-82
2023/04/02 02:25:32;;;;;;;24.27;14.87;;;;;;;-145.18;100.00;46728.75;6182850;23;20013;-82
2023/04/02 02:28:31;;;;;;;26.43;14.90;;;;;;;-145.18;100.00;46728.75;6181952;23;20234;-81
2023/04/02 02:31:16;;;;;;;24.33;14.57;;;;;;;-145.18;100.00;46726.81;6133998;23;20243;-81
2023/04/02 02:33:47;;;;;;;25.97;15.20;;;;;;;-145.18;100.00;46728.75;6182599;23;20223;-81
2023/04/02 02:36:26;;;;;;;24.37;14.57;;;;;;;-145.18;100.00;46724.84;6182509;23;20226;-81
2023/04/02 02:39:29;;;;;;;22.03;13.40;;;;;;;-145.18;100.00;46726.81;6182135;23;20760;-81
2023/04/02 02:42:01;;;;;;;21.30;13.40;;;;;;;-145.18;100.00;46732.66;6134415;23;20231;-81
2023/04/02 02:44:30;;;;;;;22.67;14.17;;;;;;;-145.18;100.00;46726.81;6182633;23;20683;-81
2023/04/02 02:47:00;;;;;;;23.30;13.63;;;;;;;-145.18;100.00;46728.75;6181834;23;20227;-81
2023/04/02 02:49:38;;;;;;;21.93;14.40;;;;;;;-145.18;100.00;46732.66;6182416;23;20254;-82
2023/04/02 02:52:19;;;;;;;24.43;14.20;;;;;;;-145.18;100.00;46726.81;6182075;23;20671;-82
2023/04/02 02:54:55;;;;;;;24.17;14.33;;;;;;;-145.18;100.00;46728.75;6182799;23;20242;-81
2023/04/02 02:57:22;;;;;;;;;;;;;;;-145.18;100.00;46736.56;6182819;23;20223;-81
2023/04/02 02:59:49;;;;;;;25.70;13.23;;;;;;;-145.18;100.00;46734.63;6182068;23;19908;-81
2023/04/02 03:02:16;;;;;;;24.90;12.93;;;;;;;-145.18;100.00;46734.63;6181563;23;20712;-81
2023/04/02 03:04:46;;;;;;;20.13;12.83;;;;;;;-145.18;100.00;46734.63;6181330;23;20297;-81
2023/04/02 03:07:15;;;;;;;21.97;13.80;;;;;;;-145.18;100.00;46740.47;6181001;23;20238;-81
2023/04/02 03:10:04;;;;;;;20.63;13.53;;;;;;;-145.18;100.00;46734.63;6181370;23;20321;-81
2023/04/02 03:12:35;;;;;;;21.17;13.63;;;;;;;-145.18;100.00;46736.56;6180948;23;20231;-82
2023/04/02 03:15:19;;;;;;;20.40;13.53;;;;;;;-145.18;100.00;46732.66;6180575;23;20695;-81
2023/04/02 03:17:49;;;;;;;22.00;13.37;;;;;;;-145.18;100.00;46732.66;6180930;23;20219;-81
2023/04/02 03:20:25;;;;;;;21.23;12.43;;;;;;;-145.18;100.00;46736.56;6181246;23;20223;-81
2023/04/02 03:22:53;;;;;;;22.77;13.07;;;;;;;-145.18;100.00;46738.53;6180448;23;20227;-81
2023/04/02 03:25:25;;;;;;;22.33;12.53;;;;;;;-145.18;100.00;46734.63;6180941;23;20247;-81
2023/04/02 03:27:55;;;;;;;23.73;12.87;;;;;;;-145.18;100.00;46734.63;6180487;23;20227;-81
2023/04/02 03:30:29;;;;;;;21.33;12.03;;;;;;;-145.18;100.00;46734.63;6179604;23;20362;-81
2023/04/02 03:33:12;;;;;;;19.20;12.57;;;;;;;-145.18;100.00;46736.56;6180551;23;20245;-81
2023/04/02 03:35:46;;;;;;;20.30;13.00;;;;;;;-145.18;100.00;46736.56;6180922;23;20230;-81
2023/04/02 03:38:22;;;;;;;24.30;13.17;;;;;;;-145.18;100.00;46736.56;6181106;23;20231;-81
2023/04/02 03:41:05;;;;;;;18.73;12.38;;;;;;;-145.18;100.00;46736.56;6180736;23;20239;-81
2023/04/02 03:43:38;;;;;;;22.07;13.10;;;;;;;-145.18;100.00;46734.63;6180845;23;20502;-81
2023/04/02 03:46:31;;;;;;;20.53;12.10;;;;;;;-145.18;100.00;46736.56;6180540;23;20553;-81
2023/04/02 03:49:01;;;;;;;20.47;11.53;;;;;;;-145.18;100.00;46732.66;6180280;23;20716;-81
2023/04/02 03:51:49;;;;;;;19.47;12.23;;;;;;;-145.18;100.00;46738.53;6180989;23;20219;-81
2023/04/02 03:54:16;;;;;;;20.83;11.40;;;;;;;-145.18;100.00;46738.53;6180714;23;20234;-81
2023/04/02 03:56:42;;;;;;;19.40;12.53;;;;;;;-145.18;100.00;46738.53;6180859;23;20259;-81
2023/04/02 03:59:19;;;;;;;27.70;12.57;;;;;;;-145.18;100.00;46738.53;6180173;23;20246;-81
2023/04/02 04:01:57;;;;;;;21.57;12.50;;;;;;;-145.18;100.00;46736.56;6132114;23;1125523;-80
2023/04/02 04:04:26;;;;;;;22.90;11.97;;;;;;;-145.18;100.00;46740.47;6181875;23;20235;-81
2023/04/02 04:06:55;;;;;;;21.40;11.67;;;;;;;-145.18;100.00;46732.66;6181950;23;20231;-81
2023/04/02 04:09:32;;;;;;;20.47;12.80;;;;;;;-145.18;100.00;46734.63;6181627;23;20908;-82
2023/04/02 04:12:20;;;;;;;21.87;11.93;;;;;;;-145.18;100.00;46738.53;6181955;23;20231;-81
2023/04/02 04:14:53;;;;;;;22.47;12.03;;;;;;;-145.18;100.00;46740.47;6184193;23;20688;-82
2023/04/02 04:17:50;;;;;;;26.60;13.53;;;;;;;-145.18;100.00;46734.63;6183611;23;20227;-82
2023/04/02 04:20:28;;;;;;;20.45;10.65;;;;;;;-145.18;100.00;46736.56;6183884;23;20219;-80
2023/04/02 04:22:54;;;;;;;24.50;12.57;;;;;;;-145.18;100.00;46738.53;6183196;23;20076;-80
2023/04/02 04:25:28;;;;;;;17.83;11.23;;;;;;;-145.18;100.00;46732.66;6183808;23;20254;-80
2023/04/02 04:28:23;;;;;;;22.87;12.10;;;;;;;-145.18;100.00;46732.66;6183492;23;20223;-80
2023/04/02 04:31:02;;;;;;;24.17;12.30;;;;;;;-145.18;100.00;46736.56;6163834;23;20250;-80
2023/04/02 04:33:53;;;;;;;20.43;11.43;;;;;;;-145.18;100.00;46734.63;6182909;23;20763;-81
2023/04/02 04:36:26;;;;;;;26.43;12.43;;;;;;;-145.18;100.00;46740.47;6183852;23;20234;-81
2023/04/02 04:38:54;;;;;;;19.00;11.97;;;;;;;-145.18;100.00;46732.66;6180165;23;20232;-81
2023/04/02 04:41:25;;;;;;;20.40;12.57;;;;;;;-145.18;100.00;46736.56;6183288;23;20235;-81
2023/04/02 04:43:50;;;;;;;21.43;12.37;;;;;;;-145.18;100.00;46736.56;6182636;23;20235;-81
2023/04/02 04:46:31;;;;;;;26.57;14.80;;;;;;;-145.18;100.00;46736.56;6183375;23;20302;-80
2023/04/02 04:49:04;;;;;;;20.70;13.27;;;;;;;-145.18;100.00;46732.66;6182832;23;20005;-80
2023/04/02 04:51:36;;;;;;;19.90;11.60;;;;;;;-145.18;100.00;46736.56;6183123;23;20302;-81
2023/04/02 04:54:01;;;;;;;20.40;11.70;;;;;;;-145.18;100.00;46742.44;6182734;23;20219;-81
2023/04/02 04:56:29;;;;;;;23.33;12.93;;;;;;;-145.18;100.00;46738.53;6183187;23;20242;-80
2023/04/02 04:59:02;;;;;;;19.23;12.67;;;;;;;-145.18;100.00;46736.56;6182862;23;20088;-80
2023/04/02 05:01:45;;;;;;;20.87;12.53;;;;;;;-145.18;100.00;46734.63;6182843;23;20684;-80
2023/04/02 05:04:25;;;;;;;19.37;12.17;;;;;;;-145.18;100.00;46734.63;6182809;23;20703;-80
2023/04/02 05:06:53;;;;;;;24.23;12.57;;;;;;;-145.18;100.00;46738.53;6183189;23;20552;-80
2023/04/02 05:09:51;;;;;;;20.57;12.33;;;;;;;-145.18;100.00;46738.53;6183285;23;20250;-81
2023/04/02 05:12:35;;;;;;;20.27;12.63;;;;;;;-145.18;100.00;46740.47;6182205;23;20247;-80
2023/04/02 05:15:29;;;;;;;20.80;12.43;;;;;;;-145.18;100.00;46738.53;6183413;23;20596;-80
2023/04/02 05:17:54;;;;;;;20.83;12.23;;;;;;;-145.18;100.00;46742.44;6182647;23;20223;-81
2023/04/02 05:20:30;;;;;;;19.50;12.03;;;;;;;-145.18;100.00;46738.53;6183266;23;20227;-80
2023/04/02 05:23:17;;;;;;;17.07;11.13;;;;;;;-145.18;100.00;46740.47;6182774;23;20438;-83
2023/04/02 05:25:53;;;;;;;19.10;12.27;;;;;;;-145.18;100.00;46732.66;6182906;23;20276;-81
2023/04/02 05:28:33;;;;;;;20.20;11.90;;;;;;;-145.18;100.00;46736.56;6156176;23;20612;-81
2023/04/02 05:31:05;;;;;;;18.97;11.47;;;;;;;-145.18;100.00;46736.56;6182608;23;20278;-81
2023/04/02 05:33:34;;;;;;;18.63;11.20;;;;;;;-145.18;100.00;46738.53;6181517;23;20254;-81
2023/04/02 05:36:06;;;;;;;22.63;12.00;;;;;;;-145.18;100.00;46728.75;6182820;23;20266;-81
2023/04/02 05:38:36;;;;;;;19.87;11.60;;;;;;;-145.18;100.00;46732.66;6182851;23;20226;-81
2023/04/02 05:41:15;;;;;;;22.77;11.80;;;;;;;-145.18;100.00;46732.66;6183075;23;20235;-81
2023/04/02 05:43:46;;;;;;;14.83;10.80;;;;;;;-145.18;100.00;46726.81;6183024;23;20223;-81
2023/04/02 05:46:17;;;;;;;18.30;11.80;;;;;;;-145.18;100.00;46722.91;6183134;23;20551;-81
2023/04/02 05:48:49;;;;;;;22.10;11.73;;;;;;;-145.18;100.00;46724.84;6182637;23;20235;-81
2023/04/02 05:51:29;;;;;;;18.60;11.37;;;;;;;-145.18;100.00;46709.22;6183090;23;20223;-82
2023/04/02 05:53:59;;;;;;;19.87;12.17;;;;;;;-145.18;100.00;46705.31;6182589;23;20233;-81
2023/04/02 05:56:31;;;;;;;19.17;12.17;;;;;;;-145.18;100.00;46681.88;6183226;23;20326;-81
2023/04/02 05:59:17;;;;;;;14.97;10.70;;;;;;;-145.18;100.00;46672.13;6182149;23;20746;-81
2023/04/02 06:01:48;;;;;;;18.97;9.70;;;;;;;-145.18;100.00;46656.50;6181626;23;20242;-81
2023/04/02 06:04:30;;;;;;;14.40;10.40;;;;;;;-145.18;100.00;46640.88;6155701;23;20553;-81
2023/04/02 06:07:01;;;;;;;15.67;9.57;;;;;;;-145.18;100.00;46660.41;6182523;23;20226;-81
2023/04/02 06:09:34;;;;;;;18.00;10.70;;;;;;;-145.18;100.00;46660.41;6181392;23;20309;-81
2023/04/02 06:12:20;;;;;;;16.07;10.17;;;;;;;-145.18;100.00;46660.41;6182540;23;20231;-81
2023/04/02 06:14:45;;;;;;;21.05;11.00;;;;;;;-145.18;100.00;46660.41;6107457;23;20241;-81
2023/04/02 06:17:15;;;;;;;16.63;10.87;;;;;;;-145.18;100.00;46660.41;6173719;23;20083;-81
2023/04/02 06:19:41;;;;;;;15.60;9.77;;;;;;;-145.18;100.00;46660.41;6182469;23;20013;-80
2023/04/02 06:22:17;;;;;;;12.27;8.60;;;;;;;-145.18;100.00;46660.41;6180487;23;20231;-81
2023/04/02 06:24:45;;;;;;;16.33;8.93;;;;;;;-145.18;100.00;46660.41;6181427;23;20241;-82
2023/04/02 06:27:17;;;;;;;19.00;9.53;;;;;;;-145.18;100.00;46638.91;6180219;23;20289;-81
2023/04/02 06:29:44;;;;;;;16.50;9.60;;;;;;;-145.18;100.00;46638.91;6179739;23;20255;-81
2023/04/02 06:32:11;;;;;;;14.43;8.50;;;;;;;-145.18;100.00;46636.94;6181505;23;20239;-81
2023/04/02 06:34:41;;;;;;;14.37;8.60;;;;;;;-145.18;100.00;46636.94;6178774;23;20238;-81
2023/04/02 06:37:36;;;;;;;14.67;7.43;;;;;;;-145.18;100.00;46642.81;6181171;23;20231;-81
2023/04/02 06:40:04;;;;;;;18.33;8.03;;;;;;;-145.18;100.00;46648.69;6168664;23;20623;-81
2023/04/02 06:42:38;;;;;;;15.60;7.17;;;;;;;-145.18;100.00;46652.59;6180630;23;20235;-81
2023/04/02 06:45:04;;;;;;;18.83;7.20;;;;;;;-145.18;100.00;46650.63;6181698;23;20270;-81
2023/04/02 06:47:37;;;;;;;12.20;6.33;;;;;;;-145.18;100.00;46652.59;6182274;23;20301;-81
2023/04/02 06:50:12;;;;;;;11.53;5.90;;;;;;;-145.18;100.00;46660.41;6173054;23;20254;-81
2023/04/02 06:52:53;;;;;;;12.13;5.60;;;;;;;-145.18;100.00;46656.50;6182240;23;20227;-81
2023/04/02 06:55:19;;;;;;;11.73;5.80;;;;;;;-145.18;100.00;46670.16;6182141;23;20001;-81
2023/04/02 06:57:44;;;;;;;11.70;5.50;;;;;;;-145.18;100.00;46666.25;6181996;23;20264;-80
2023/04/02 07:00:56;;;;;;;10.20;5.40;;;;;;;-145.18;100.00;46670.16;6181708;23;20020;-81
2023/04/02 07:03:30;;;;;;;11.63;4.83;;;;;;;-145.18;100.00;46674.06;6172650;23;20025;-82
2023/04/02 07:05:57;;;;;;;11.23;5.10;;;;;;;-145.18;100.00;46689.69;6181091;23;20293;-81
2023/04/02 07:08:23;;;;;;;11.13;4.00;;;;;;;-145.18;100.00;46693.59;6155756;23;20227;-81
2023/04/02 07:10:48;;;;;;;15.53;5.87;;;;;;;-145.18;100.00;46697.50;6180831;23;20273;-81
2023/04/02 07:13:18;;;;;;;7.40;4.33;;;;;;;-145.18;100.00;46701.41;6180638;23;20009;-81
2023/04/02 07:15:49;;;;;;;10.60;4.57;;;;;;;-145.18;100.00;46705.31;6180064;23;20466;-81
2023/04/02 07:18:26;;;;;;;8.27;4.33;;;;;;;-145.18;100.00;46693.59;6180490;23;20227;-81
2023/04/02 07:20:51;;;;;;;6.73;4.20;;;;;;;-145.18;100.00;46707.28;6180903;23;20223;-81
2023/04/02 07:23:16;;;;;;;14.43;4.73;;;;;;;-145.18;100.00;46711.19;6180995;23;20235;-82
2023/04/02 07:25:42;;;;;;;7.17;3.80;;;;;;;-145.18;100.00;46717.03;6155580;23;20037;-80
2023/04/02 07:28:07;;;;;;;8.63;3.73;;;;;;;-145.18;100.00;46722.91;6181482;23;20490;-81
2023/04/02 07:30:33;;;;;;;8.50;4.40;;;;;;;-145.18;100.00;46736.56;6181983;23;20017;-82
2023/04/02 07:32:58;;;;;;;7.50;3.80;;;;;;;-145.18;100.00;46754.16;6181519;23;20037;-80
2023/04/02 07:35:23;;;;;;;8.80;4.47;;;;;;;-145.18;100.00;46744.38;6182082;23;20034;-81
2023/04/02 07:37:49;;;;;;;12.17;4.70;;;;;;;-145.18;100.00;46785.41;6182025;23;20025;-81
2023/04/02 07:40:17;;;;;;;10.33;5.00;;;;;;;-145.18;100.00;46787.38;6181945;23;20033;-81
2023/04/02 07:42:43;;;;;;;12.87;3.70;;;;;;;-145.18;100.00;46791.28;6182072;23;20422;-81
2023/04/02 07:45:09;;;;;;;9.63;3.97;;;;;;;-145.18;100.00;46814.72;6181472;23;20239;-81
2023/04/02 07:47:34;;;;;;;8.53;4.50;;;;;;;-145.18;100.00;46806.91;6182644;23;20230;-81
2023/04/02 07:50:00;;;;;;;6.00;4.00;;;;;;;-145.18;100.00;46820.56;6183600;23;20071;-81
2023/04/02 07:52:25;;;;;;;11.97;4.87;;;;;;;-145.18;100.00;46810.81;6184062;23;20012;-81
2023/04/02 07:54:51;;;;;;;7.50;4.70;;;;;;;-145.18;100.00;46812.75;6183477;23;20005;-81
2023/04/02 07:57:16;;;;;;;8.67;4.03;;;;;;;-145.18;100.00;46818.63;6184150;23;20055;-81
2023/04/02 07:59:41;;;;;;;8.37;4.97;;;;;;;-145.18;100.00;46820.56;6183748;23;20009;-80
2023/04/02 08:02:18;;;;;;;8.13;4.77;;;;;;;-145.18;100.00;46842.06;6183378;23;20019;-80
2023/04/02 08:04:44;;;;;;;9.97;4.10;;;;;;;-145.18;100.00;46859.63;6183626;23;20093;-81
2023/04/02 08:07:09;;;;;;;11.07;4.53;;;;;;;-145.18;100.00;46840.09;6183338;23;20258;-81
2023/04/02 08:09:35;;;;;;;8.93;4.33;;;;;;;-145.18;100.00;46857.69;6183576;23;20319;-80
2023/04/02 08:12:00;;;;;;;10.07;5.20;;;;;;;-145.18;100.00;46883.09;6157522;23;20009;-81
2023/04/02 08:14:25;;;;;;;8.93;4.80;;;;;;;-145.18;100.00;46879.19;6157035;23;20016;-80
2023/04/02 08:16:54;;;;;;;7.83;4.80;;;;;;;-145.18;100.00;46859.63;6183917;23;20016;-81
2023/04/02 08:19:20;;;;;;;9.77;4.60;;;;;;;-145.18;100.00;46890.91;6183319;23;20013;-80
2023/04/02 08:21:49;;;;;;;9.67;4.27;;;;;;;-145.18;100.00;46906.53;6183793;23;20310;-80
2023/04/02 08:24:17;;;;;;;9.93;4.70;;;;;;;-145.18;100.00;46881.13;6182917;23;20234;-80
2023/04/02 08:26:47;;;;;;;5.63;4.27;;;;;;;-145.18;100.00;46863.53;6183646;23;20227;-80
2023/04/02 08:29:12;;;;;;;9.87;4.33;;;;;;;-145.18;100.00;46867.44;6183156;23;20235;-80
2023/04/02 08:31:38;;;;;;;11.13;5.33;;;;;;;-145.18;100.00;46888.94;6183763;23;20625;-80
2023/04/02 08:34:03;;;;;;;9.43;4.50;;;;;;;-145.18;100.00;46885.03;6183036;23;20035;-80
2023/04/02 08:36:33;;;;;;;9.97;4.30;;;;;;;-145.18;100.00;46844.00;6183655;23;20063;-80
2023/04/02 08:38:58;;;;;;;9.57;4.70;;;;;;;-145.18;100.00;46818.63;6182898;23;20108;-80
2023/04/02 08:41:31;;;;;;;13.10;5.33;;;;;;;-145.18;100.00;46804.94;6183470;23;20672;-80
2023/04/02 08:44:14;;;;;;;11.90;5.40;;;;;;;-145.18;100.00;46834.25;6183309;23;20024;-80
2023/04/02 08:47:04;;;;;;;10.70;5.20;;;;;;;-145.18;100.00;46830.34;6183675;23;20226;-80
2023/04/02 08:49:41;;;;;;;9.63;6.40;;;;;;;-145.18;100.00;46824.47;6182997;23;20242;-80
2023/04/02 08:52:22;;;;;;;11.00;5.57;;;;;;;-145.18;100.00;46844.00;6182451;23;20711;-80
2023/04/02 08:54:48;;;;;;;13.63;6.23;;;;;;;-145.18;100.00;46844.00;6156578;23;20628;-80
2023/04/02 08:57:44;;;;;;;14.53;6.23;;;;;;;-145.18;100.00;46840.09;6156735;23;20231;-80
2023/04/02 09:00:15;;;;;;;11.20;5.47;;;;;;;-145.18;100.00;46834.25;6182059;23;20218;-80
2023/04/02 09:02:46;;;;;;;15.70;6.50;;;;;;;-145.18;100.00;46836.19;6183003;23;20099;-79
2023/04/02 09:05:27;;;;;;;11.63;6.00;;;;;;;-145.18;100.00;46844.00;6183089;23;20255;-79
2023/04/02 09:07:56;;;;;;;8.47;6.07;;;;;;;-145.18;100.00;46812.75;6182816;23;20231;-79
2023/04/02 09:10:32;;;;;;;10.43;5.60;;;;;;;-145.18;100.00;46828.38;6182886;23;20278;-80
2023/04/02 09:12:59;;;;;;;11.52;6.85;;;;;;;-145.18;100.00;46865.50;6183264;23;20230;-79
2023/04/02 09:15:32;;;;;;;10.33;6.77;;;;;;;-145.18;100.00;46888.94;6183160;23;20016;-79
2023/04/02 09:18:14;;;;;;;12.10;6.07;;;;;;;-145.18;100.00;46849.88;6183061;23;20615;-79
2023/04/02 09:20:40;;;;;;;13.17;7.07;;;;;;;-145.18;100.00;46840.09;6183663;23;20223;-79
2023/04/02 09:23:14;;;;;;;9.07;6.20;;;;;;;-145.18;100.00;46822.53;6182867;23;20750;-79
2023/04/02 09:25:46;;;;;;;11.93;6.93;;;;;;;-145.18;100.00;46810.81;6183458;23;19997;-79
2023/04/02 09:28:13;;;;;;;11.07;7.47;;;;;;;-145.18;100.00;46836.19;6182595;23;20227;-79
2023/04/02 09:30:59;;;;;;;11.40;6.43;;;;;;;-145.18;100.00;46844.00;6182911;23;20258;-79
2023/04/02 09:33:53;;;;;;;13.32;7.05;;;;;;;-145.18;100.00;46844.00;6156209;23;20230;-79
2023/04/02 09:36:27;;;;;;;10.30;5.53;;;;;;;-145.18;100.00;46844.00;6178982;23;20389;-79
2023/04/02 09:38:57;;;;;;;13.17;6.00;;;;;;;-145.18;100.00;46832.28;6182796;23;20438;-79
2023/04/02 09:41:27;;;;;;;10.43;5.60;;;;;;;-145.18;100.00;46847.91;6183326;23;20444;-79
2023/04/02 09:44:11;;;;;;;9.33;6.00;;;;;;;-145.18;100.00;46832.28;6182627;23;20264;-79
2023/04/02 09:46:45;;;;;;;13.37;6.07;;;;;;;-145.18;100.00;46838.16;6183030;23;20596;-79
2023/04/02 09:49:14;;;;;;;11.20;6.13;;;;;;;-145.18;100.00;46844.00;6182572;23;20251;-79
2023/04/02 09:51:40;;;;;;;12.10;5.80;;;;;;;-145.18;100.00;46830.34;6183080;23;20730;-79
2023/04/02 09:54:12;;;;;;;9.57;5.40;;;;;;;-145.18;100.00;46842.06;6182167;23;20235;-79
2023/04/02 09:56:40;;;;;;;11.93;5.93;;;;;;;-145.18;100.00;46830.34;6182947;23;20442;-79
2023/04/02 09:59:11;;;;;;;9.53;5.63;;;;;;;-145.18;100.00;46812.75;6181551;23;20246;-79
2023/04/02 10:02:00;;;;;;;8.07;5.73;;;;;;;-145.18;100.00;46828.38;6182834;23;20291;-79
2023/04/02 10:04:43;;;;;;;9.23;5.93;;;;;;;-145.18;100.00;46828.38;6181963;23;20261;-79
2023/04/02 10:07:35;;;;;;;10.57;6.23;;;;;;;-145.18;100.00;46836.19;6156211;23;20247;-79
2023/04/02 10:10:16;;;;;;;8.40;6.07;;;;;;;-145.18;100.00;46859.63;6181379;23;20785;-79
2023/04/02 10:12:44;;;;;;;8.10;6.07;;;;;;;-145.18;100.00;46865.50;6182835;23;20278;-79
2023/04/02 10:15:16;;;;;;;12.20;6.80;;;;;;;-145.18;100.00;46890.91;6182253;23;20875;-79
2023/04/02 10:17:42;;;;;;;11.50;6.10;;;;;;;-145.18;100.00;46892.84;6156422;23;20238;-78
2023/04/02 10:20:19;;;;;;;12.43;6.13;;;;;;;-145.18;100.00;46922.16;6182224;23;20219;-79
2023/04/02 10:22:45;;;;;;;10.07;5.40;;;;;;;-145.18;100.00;46922.16;6156100;23;20572;-79
2023/04/02 10:25:16;;;;;;;9.87;5.57;;;;;;;-145.18;100.00;46916.28;6182028;23;20227;-79
2023/04/02 10:27:59;;;;;;;11.73;6.27;;;;;;;-145.18;100.00;46920.19;6182879;23;20637;-78
2023/04/02 10:30:43;;;;;;;10.10;5.27;;;;;;;-145.18;100.00;46918.25;6181914;23;20289;-78
2023/04/02 10:33:20;;;;;;;9.67;5.50;;;;;;;-145.18;100.00;46945.59;6182359;23;20285;-78
2023/04/02 10:36:29;;;;;;;10.13;5.47;;;;;;;-145.18;100.00;46947.53;6178410;23;20543;-78
2023/04/02 10:38:57;;;;;;;9.77;5.00;;;;;;;-145.18;100.00;46965.13;6159921;23;20231;-78
2023/04/02 10:41:44;;;;;;;10.67;6.00;;;;;;;-145.18;100.00;46949.50;6181961;23;20314;-78
2023/04/02 10:44:58;;;;;;;7.73;5.00;;;;;;;-145.18;100.00;46971.00;6181549;23;20215;-78
2023/04/02 10:47:29;;;;;;;11.67;5.40;;;;;;;-145.18;100.00;46969.03;6168514;23;20821;-78
2023/04/02 10:50:13;;;;;;;8.30;4.97;;;;;;;-145.18;100.00;46957.31;6180868;23;20247;-78
2023/04/02 10:53:03;;;;;;;10.07;4.77;;;;;;;-145.18;100.00;46972.94;6181954;23;20589;-78
2023/04/02 10:55:33;;;;;;;11.67;4.33;;;;;;;-145.18;100.00;46957.31;6181533;23;20255;-78
2023/04/02 10:58:06;;;;;;;7.00;3.60;;;;;;;-145.18;100.00;46941.69;6181352;23;20234;-78
2023/04/02 11:00:37;;;;;;;8.43;3.83;;;;;;;-145.18;100.00;46933.88;6181436;23;20227;-78
2023/04/02 11:03:18;;;;;;;8.27;3.57;;;;;;;-145.18;100.00;46935.81;6177423;23;20243;-78
2023/04/02 11:05:48;;;;;;;8.33;3.13;;;;;;;-145.18;100.00;46961.22;6180728;23;20843;-78
2023/04/02 11:08:37;;;;;;;6.43;3.50;;;;;;;-145.18;100.00;46943.63;6181306;23;20246;-78
2023/04/02 11:11:14;;;;;;;6.57;3.07;;;;;;;-145.18;100.00;46887.00;6181280;23;20739;-78
2023/04/02 11:14:00;;;;;;;5.60;2.70;;;;;;;-145.18;100.00;46976.84;6181204;23;20231;-78
2023/04/02 11:16:26;;;;;;;11.63;3.38;;;;;;;-145.18;100.00;47549.25;6180989;23;20553;-78
2023/04/02 11:19:15;;;;;;;8.47;3.10;;;;;;;-145.18;100.00;47687.97;6180798;23;20075;-78
2023/04/02 11:21:58;;;;;;;6.83;2.50;;;;;;;-145.18;100.00;47648.91;6181360;23;20739;-78
2023/04/02 11:24:32;;;;;;;5.23;2.57;;;;;;;-145.18;100.00;47656.72;6181686;23;20302;-79
2023/04/02 11:27:31;;;;;;;3.50;2.20;;;;;;;-145.18;100.00;47633.28;6181162;23;20226;-79
2023/04/02 11:30:18;;;;;;;5.33;2.30;;;;;;;-145.18;100.00;47557.06;6172106;23;20652;-78
2023/04/02 11:32:48;;;;;;;8.20;2.10;;;;;;;-145.18;100.00;47566.84;6181404;23;20230;-79